createdAt,value
2022-11-25T00:01:12.543Z,18.00
2022-11-25T00:03:39.942Z,17.10
2022-11-25T00:06:18.034Z,17.88
2022-11-25T00:08:46.506Z,17.60
2022-11-25T00:11:14.588Z,17.27
2022-11-25T00:13:41.936Z,17.25
2022-11-25T00:16:13.410Z,18.00
2022-11-25T00:18:40.045Z,18.15
2022-11-25T00:21:08.738Z,18.50
2022-11-25T00:23:36.599Z,18.63
2022-11-25T00:26:14.816Z,17.83
2022-11-25T00:28:46.220Z,17.80
2022-11-25T00:31:39.779Z,18.58
2022-11-25T00:34:07.219Z,17.75
2022-11-25T00:36:35.927Z,18.35
2022-11-25T00:39:05.417Z,19.80
2022-11-25T00:41:50.463Z,19.85
2022-11-25T00:44:38.115Z,18.38
2022-11-25T00:47:14.189Z,17.63
2022-11-25T00:49:42.862Z,20.13
2022-11-25T00:52:12.405Z,21.20
2022-11-25T00:54:38.861Z,21.55
2022-11-25T00:57:05.407Z,22.40
2022-11-25T00:59:31.766Z,20.70
2022-11-25T01:01:58.273Z,21.20
2022-11-25T01:04:24.872Z,20.40
2022-11-25T01:06:51.255Z,18.65
2022-11-25T01:09:17.634Z,20.42
2022-11-25T01:11:44.346Z,20.23
2022-11-25T01:14:11.331Z,19.90
2022-11-25T01:16:37.958Z,20.52
2022-11-25T01:19:05.585Z,18.90
2022-11-25T01:21:34.253Z,18.17
2022-11-25T01:24:02.932Z,17.95
2022-11-25T01:26:30.293Z,18.40
2022-11-25T01:28:59.507Z,16.67
2022-11-25T01:31:27.980Z,19.70
2022-11-25T01:34:04.395Z,18.20
2022-11-25T01:36:31.094Z,17.38
2022-11-25T01:38:59.505Z,17.13
2022-11-25T01:41:28.611Z,17.50
2022-11-25T01:44:05.522Z,17.35
2022-11-25T01:47:30.793Z,17.25
2022-11-25T01:50:03.695Z,16.02
2022-11-25T01:52:36.742Z,16.77
2022-11-25T01:55:11.061Z,17.60
2022-11-25T02:00:13.226Z,13.15
2022-11-25T02:02:39.870Z,14.77
2022-11-25T02:05:15.650Z,17.42
2022-11-25T02:07:45.161Z,16.00
2022-11-25T02:10:15.580Z,17.27
2022-11-25T02:12:44.965Z,17.38
2022-11-25T02:15:13.716Z,16.80
2022-11-25T02:17:40.643Z,17.13
2022-11-25T02:20:10.871Z,16.70
2022-11-25T02:22:56.928Z,18.98
2022-11-25T02:25:31.079Z,16.50
2022-11-25T02:28:05.948Z,18.20
2022-11-25T02:30:33.770Z,16.08
2022-11-25T02:33:00.938Z,17.52
2022-11-25T02:35:29.288Z,17.15
2022-11-25T02:38:00.329Z,18.27
2022-11-25T02:40:28.608Z,17.27
2022-11-25T02:42:58.722Z,18.45
2022-11-25T02:45:35.476Z,18.00
2022-11-25T02:48:01.845Z,16.48
2022-11-25T02:50:28.196Z,18.75
2022-11-25T02:52:54.519Z,17.58
2022-11-25T02:55:20.982Z,18.17
2022-11-25T02:57:47.288Z,19.52
2022-11-25T03:00:14.206Z,17.70
2022-11-25T03:02:40.668Z,20.13
2022-11-25T03:05:07.262Z,19.00
2022-11-25T03:07:33.598Z,18.27
2022-11-25T03:10:00.036Z,20.15
2022-11-25T03:12:26.435Z,20.50
2022-11-25T03:14:52.814Z,20.67
2022-11-25T03:17:19.332Z,21.25
2022-11-25T03:19:45.759Z,20.25
2022-11-25T03:22:12.188Z,20.17
2022-11-25T03:24:38.689Z,20.80
2022-11-25T03:27:05.245Z,19.52
2022-11-25T03:29:31.783Z,19.52
2022-11-25T03:31:58.174Z,21.15
2022-11-25T03:34:24.536Z,20.63
2022-11-25T03:36:50.948Z,23.38
2022-11-25T03:39:17.319Z,27.00
2022-11-25T03:41:43.686Z,29.58
2022-11-25T03:44:10.008Z,30.48
2022-11-25T03:46:36.345Z,32.30
2022-11-25T03:49:02.966Z,36.97
2022-11-25T03:51:29.472Z,35.95
2022-11-25T03:53:55.851Z,38.58
2022-11-25T03:56:22.189Z,42.38
2022-11-25T03:58:48.638Z,48.25
2022-11-25T04:01:15.033Z,47.72
2022-11-25T04:03:41.511Z,49.15
2022-11-25T04:06:07.895Z,54.55
2022-11-25T04:08:34.209Z,59.20
2022-11-25T04:11:00.695Z,62.40
2022-11-25T04:13:27.054Z,62.45
2022-11-25T04:15:53.471Z,59.85
2022-11-25T04:18:20.385Z,62.88
2022-11-25T04:20:47.017Z,58.90
2022-11-25T04:23:14.461Z,58.45
2022-11-25T04:25:40.934Z,51.70
2022-11-25T04:28:07.249Z,57.28
2022-11-25T04:30:34.123Z,53.72
2022-11-25T04:33:01.837Z,52.40
2022-11-25T04:35:28.202Z,52.95
2022-11-25T04:37:54.561Z,55.80
2022-11-25T04:40:20.921Z,55.45
2022-11-25T04:42:47.479Z,54.22
2022-11-25T04:45:24.044Z,53.75
2022-11-25T04:47:51.466Z,56.28
2022-11-25T04:50:21.056Z,53.92
2022-11-25T04:52:47.380Z,51.13
2022-11-25T04:55:13.798Z,51.25
2022-11-25T04:57:40.299Z,50.35
2022-11-25T05:00:07.925Z,48.83
2022-11-25T05:02:34.353Z,49.25
2022-11-25T05:05:01.374Z,48.42
2022-11-25T05:07:28.923Z,40.42
2022-11-25T05:09:56.216Z,42.45
2022-11-25T05:12:25.932Z,38.95
2022-11-25T05:14:52.747Z,37.53
2022-11-25T05:17:22.381Z,40.72
2022-11-25T05:19:49.698Z,37.45
2022-11-25T05:22:18.238Z,40.22
2022-11-25T05:24:44.705Z,39.80
2022-11-25T05:27:11.685Z,42.63
2022-11-25T05:29:38.181Z,39.85
2022-11-25T05:32:05.209Z,35.33
2022-11-25T05:34:31.806Z,39.05
2022-11-25T05:36:58.607Z,40.47
2022-11-25T05:39:25.431Z,38.45
2022-11-25T05:41:51.908Z,41.35
2022-11-25T05:44:22.723Z,37.90
2022-11-25T05:46:50.235Z,39.10
2022-11-25T05:49:17.604Z,39.20
2022-11-25T05:51:44.244Z,41.53
2022-11-25T05:54:10.881Z,41.88
2022-11-25T05:56:37.333Z,42.92
2022-11-25T05:59:04.796Z,40.80
2022-11-25T06:01:31.790Z,41.72
2022-11-25T06:04:04.873Z,42.80
2022-11-25T06:06:32.118Z,42.72
2022-11-25T06:08:58.786Z,45.25
2022-11-25T06:11:28.082Z,42.95
2022-11-25T06:13:57.396Z,43.08
2022-11-25T06:16:24.760Z,44.25
2022-11-25T06:18:51.455Z,43.40
2022-11-25T06:21:18.014Z,42.40
2022-11-25T06:23:47.090Z,40.58
2022-11-25T06:26:19.513Z,39.97
2022-11-25T06:28:46.433Z,40.22
2022-11-25T06:31:18.597Z,41.38
2022-11-25T06:33:49.832Z,40.40
2022-11-25T06:36:17.508Z,40.90
2022-11-25T06:38:45.195Z,41.08
2022-11-25T06:41:11.588Z,43.08
2022-11-25T06:43:38.077Z,41.83
2022-11-25T06:46:12.805Z,39.42
2022-11-25T06:48:40.308Z,40.90
2022-11-25T06:51:16.369Z,36.65
2022-11-25T06:53:42.728Z,36.40
2022-11-25T06:56:15.942Z,40.30
2022-11-25T06:58:43.976Z,39.38
2022-11-25T07:01:19.081Z,41.65
2022-11-25T07:03:47.105Z,40.13
2022-11-25T07:06:15.578Z,43.03
2022-11-25T07:08:42.533Z,41.65
2022-11-25T07:11:17.102Z,40.28
2022-11-25T07:13:43.838Z,41.35
2022-11-25T07:16:11.826Z,39.72
2022-11-25T07:18:39.528Z,39.42
2022-11-25T07:21:11.412Z,44.97
2022-11-25T07:23:38.522Z,47.47
2022-11-25T07:26:21.529Z,41.42
2022-11-25T07:28:49.387Z,40.88
2022-11-25T07:31:28.688Z,41.05
2022-11-25T07:34:00.749Z,40.13
2022-11-25T07:36:28.275Z,40.97
2022-11-25T07:38:54.879Z,42.53
2022-11-25T07:41:23.952Z,41.78
2022-11-25T07:43:52.708Z,40.83
2022-11-25T07:46:26.302Z,43.05
2022-11-25T07:51:27.152Z,44.40
2022-11-25T07:53:55.224Z,43.28
2022-11-25T07:56:21.759Z,40.70
2022-11-25T07:58:48.274Z,44.70
2022-11-25T08:01:17.033Z,43.55
2022-11-25T08:03:44.527Z,43.38
2022-11-25T08:06:16.629Z,43.25
2022-11-25T08:08:44.055Z,41.15
2022-11-25T08:11:14.340Z,41.38
2022-11-25T08:13:41.110Z,40.15
2022-11-25T08:16:08.634Z,40.88
2022-11-25T08:18:35.106Z,39.67
2022-11-25T08:21:06.914Z,42.08
2022-11-25T08:23:34.397Z,39.63
2022-11-25T08:26:13.239Z,38.22
2022-11-25T08:28:41.363Z,40.50
2022-11-25T08:31:10.917Z,40.35
2022-11-25T08:33:37.718Z,37.20
2022-11-25T08:36:04.944Z,37.10
2022-11-25T08:38:31.655Z,37.28
2022-11-25T08:40:58.377Z,42.22
2022-11-25T08:43:29.419Z,37.95
2022-11-25T08:45:56.378Z,36.85
2022-11-25T08:48:22.788Z,41.95
2022-11-25T08:50:52.643Z,38.90
2022-11-25T08:53:21.115Z,38.55
2022-11-25T08:55:48.265Z,40.72
2022-11-25T08:58:14.626Z,37.90
2022-11-25T09:00:43.076Z,40.20
2022-11-25T09:03:10.500Z,40.22
2022-11-25T09:05:45.360Z,40.75
2022-11-25T09:08:12.438Z,39.97
2022-11-25T09:10:39.689Z,39.13
2022-11-25T09:13:06.463Z,38.03
2022-11-25T09:15:34.699Z,35.10
2022-11-25T09:18:03.752Z,38.70
2022-11-25T09:20:31.137Z,33.85
2022-11-25T09:23:00.120Z,34.92
2022-11-25T09:25:27.675Z,35.50
2022-11-25T09:27:55.546Z,34.03
2022-11-25T09:30:22.897Z,33.65
2022-11-25T09:32:51.691Z,28.10
2022-11-25T09:35:19.061Z,31.83
2022-11-25T09:37:45.663Z,34.22
2022-11-25T09:40:50.912Z,34.08
2022-11-25T09:46:42.509Z,25.35
2022-11-25T09:49:40.562Z,27.20
2022-11-25T09:52:28.259Z,37.42
2022-11-25T09:55:11.421Z,39.50
2022-11-25T09:58:01.911Z,43.92
2022-11-25T10:00:38.562Z,39.10
2022-11-25T10:03:23.532Z,39.53
2022-11-25T10:06:08.188Z,38.38
2022-11-25T10:11:48.047Z,22.75
2022-11-25T10:14:41.907Z,25.85
2022-11-25T10:17:28.840Z,22.48
2022-11-25T10:20:07.182Z,24.42
2022-11-25T10:22:36.375Z,23.52
2022-11-25T10:25:15.612Z,14.07
2022-11-25T10:27:44.645Z,18.35
2022-11-25T10:30:23.794Z,18.98
2022-11-25T10:33:00.762Z,18.20
2022-11-25T10:35:34.820Z,21.42
2022-11-25T10:38:05.440Z,24.40
2022-11-25T10:40:31.956Z,26.85
2022-11-25T10:43:01.000Z,30.25
2022-11-25T10:45:40.560Z,26.52
2022-11-25T10:48:18.340Z,22.13
2022-11-25T10:51:20.352Z,17.77
2022-11-25T10:54:14.699Z,19.33
2022-11-25T10:56:49.441Z,18.83
2022-11-25T10:59:31.269Z,17.35
2022-11-25T11:02:26.944Z,16.60
2022-11-25T11:04:57.728Z,15.85
2022-11-25T11:07:29.570Z,19.02
2022-11-25T11:10:15.513Z,20.27
2022-11-25T11:13:19.869Z,17.02
2022-11-25T11:15:54.889Z,13.65
2022-11-25T11:18:29.303Z,14.00
2022-11-25T11:23:25.081Z,13.10
2022-11-25T11:26:28.696Z,15.07
2022-11-25T11:29:01.214Z,13.38
2022-11-25T11:31:33.271Z,12.60
2022-11-25T11:34:05.651Z,13.00
2022-11-25T11:37:12.319Z,13.48
2022-11-25T11:40:00.144Z,15.90
2022-11-25T11:42:41.438Z,16.95
2022-11-25T11:45:42.338Z,18.38
2022-11-25T11:48:39.298Z,20.17
2022-11-25T11:51:27.503Z,21.27
2022-11-25T11:54:18.050Z,21.60
2022-11-25T11:56:52.058Z,18.50
2022-11-25T11:59:46.914Z,20.45
2022-11-25T12:02:52.521Z,18.88
2022-11-25T12:05:22.045Z,17.80
2022-11-25T12:08:28.341Z,17.50
2022-11-25T12:10:58.137Z,21.15
2022-11-25T12:13:56.513Z,20.55
2022-11-25T12:16:32.333Z,18.67
2022-11-25T12:19:39.560Z,21.20
2022-11-25T12:22:32.270Z,19.02
2022-11-25T12:25:08.724Z,16.67
2022-11-25T12:28:10.361Z,17.60
2022-11-25T12:31:06.271Z,20.27
2022-11-25T12:33:44.125Z,18.25
2022-11-25T12:36:17.743Z,18.42
2022-11-25T12:38:53.423Z,17.35
2022-11-25T12:41:19.664Z,16.50
2022-11-25T12:43:48.959Z,14.07
2022-11-25T12:46:28.507Z,13.57
2022-11-25T12:48:58.194Z,13.90
2022-11-25T12:51:51.079Z,14.30
2022-11-25T12:54:54.675Z,10.52
2022-11-25T12:57:30.305Z,10.52
2022-11-25T13:00:46.556Z,9.95
2022-11-25T13:03:45.861Z,10.93
2022-11-25T13:06:22.664Z,11.25
2022-11-25T13:08:55.742Z,11.02
2022-11-25T13:11:31.664Z,11.63
2022-11-25T13:14:14.337Z,11.10
2022-11-25T13:16:45.412Z,12.65
2022-11-25T13:19:16.626Z,14.65
2022-11-25T13:22:18.218Z,13.85
2022-11-25T13:24:47.654Z,11.13
2022-11-25T13:27:35.907Z,12.35
2022-11-25T13:30:03.198Z,11.65
2022-11-25T13:32:35.221Z,11.30
2022-11-25T13:35:26.287Z,12.27
2022-11-25T13:37:53.410Z,11.20
2022-11-25T13:40:22.872Z,12.10
2022-11-25T13:42:53.314Z,11.13
2022-11-25T13:45:43.320Z,11.60
2022-11-25T13:48:21.237Z,11.43
2022-11-25T13:51:10.610Z,11.38
2022-11-25T13:53:39.827Z,11.55
2022-11-25T13:56:25.316Z,12.48
2022-11-25T13:59:12.222Z,12.00
2022-11-25T14:01:52.421Z,12.13
2022-11-25T14:04:43.026Z,11.60
2022-11-25T14:07:26.711Z,10.73
2022-11-25T14:10:54.829Z,11.80
2022-11-25T14:13:50.991Z,10.48
2022-11-25T14:16:35.625Z,10.85
2022-11-25T14:22:30.900Z,9.63
2022-11-25T14:25:25.590Z,10.20
2022-11-25T14:28:03.923Z,10.50
2022-11-25T14:30:32.608Z,10.82
2022-11-25T14:33:03.652Z,11.07
2022-11-25T14:35:35.493Z,11.93
2022-11-25T14:38:13.515Z,10.23
2022-11-25T14:41:00.327Z,10.32
2022-11-25T14:43:28.856Z,10.40
2022-11-25T14:46:15.534Z,11.15
2022-11-25T14:48:43.722Z,11.85
2022-11-25T14:51:18.438Z,10.93
2022-11-25T14:53:50.449Z,11.73
2022-11-25T14:56:55.426Z,11.70
2022-11-25T14:59:22.080Z,10.52
2022-11-25T15:01:54.961Z,11.38
2022-11-25T15:04:24.325Z,11.80
2022-11-25T15:06:53.973Z,12.02
2022-11-25T15:09:29.324Z,12.88
2022-11-25T15:12:00.669Z,13.38
2022-11-25T15:14:27.028Z,13.70
2022-11-25T15:16:54.220Z,14.88
2022-11-25T15:19:25.297Z,15.07
2022-11-25T15:24:53.291Z,15.30
2022-11-25T15:27:28.671Z,17.40
2022-11-25T15:29:56.993Z,18.60
2022-11-25T15:32:29.799Z,18.65
2022-11-25T15:34:59.021Z,18.98
2022-11-25T15:37:25.985Z,19.88
2022-11-25T15:40:31.409Z,20.23
2022-11-25T15:43:04.339Z,18.80
2022-11-25T15:45:53.990Z,18.75
2022-11-25T15:48:38.403Z,20.10
2022-11-25T15:51:23.142Z,19.60
2022-11-25T15:53:56.386Z,20.55
2022-11-25T15:56:26.910Z,23.42
2022-11-25T15:58:58.636Z,21.42
2022-11-25T16:01:31.750Z,22.42
2022-11-25T16:04:19.833Z,24.67
2022-11-25T16:07:06.435Z,22.90
2022-11-25T16:10:02.154Z,22.90
2022-11-25T16:12:28.514Z,23.90
2022-11-25T16:14:54.856Z,24.98
2022-11-25T16:20:28.508Z,22.23
2022-11-25T16:22:56.127Z,22.48
2022-11-25T16:25:22.845Z,21.75
2022-11-25T16:27:49.386Z,22.52
2022-11-25T16:30:20.163Z,22.98
2022-11-25T16:32:46.576Z,23.20
2022-11-25T16:35:15.595Z,24.92
2022-11-25T16:37:47.199Z,25.83
2022-11-25T16:40:17.078Z,27.20
2022-11-25T16:42:49.142Z,27.17
2022-11-25T16:45:27.369Z,31.13
2022-11-25T16:47:54.436Z,28.50
2022-11-25T16:50:22.033Z,29.30
2022-11-25T16:52:49.697Z,29.35
2022-11-25T16:55:18.364Z,31.05
2022-11-25T16:57:46.933Z,32.40
2022-11-25T17:00:17.660Z,31.33
2022-11-25T17:02:44.844Z,32.95
2022-11-25T17:05:25.261Z,32.83
2022-11-25T17:07:53.581Z,33.45
2022-11-25T17:10:20.648Z,34.95
2022-11-25T17:12:47.648Z,33.58
2022-11-25T17:15:24.302Z,32.83
2022-11-25T17:17:51.094Z,32.78
2022-11-25T17:20:21.763Z,29.05
2022-11-25T17:22:49.076Z,27.75
2022-11-25T17:25:15.602Z,29.70
2022-11-25T17:27:42.810Z,29.05
2022-11-25T17:30:22.348Z,28.42
2022-11-25T17:33:02.757Z,27.08
2022-11-25T17:35:29.394Z,25.95
2022-11-25T17:37:57.954Z,27.02
2022-11-25T17:40:24.527Z,27.63
2022-11-25T17:42:52.564Z,28.35
2022-11-25T17:45:21.358Z,25.35
2022-11-25T17:47:48.170Z,27.65
2022-11-25T17:50:23.589Z,27.35
2022-11-25T17:52:51.544Z,27.48
2022-11-25T17:55:19.833Z,27.58
2022-11-25T17:57:48.303Z,28.70
2022-11-25T18:00:17.844Z,28.98
2022-11-25T18:02:44.279Z,27.73
2022-11-25T18:05:14.731Z,26.20
2022-11-25T18:07:43.770Z,24.85
2022-11-25T18:10:14.421Z,26.63
2022-11-25T18:12:42.709Z,27.63
2022-11-25T18:15:19.435Z,25.52
2022-11-25T18:17:47.003Z,25.38
2022-11-25T18:20:21.080Z,27.55
2022-11-25T18:22:47.814Z,25.95
2022-11-25T18:25:38.984Z,26.25
2022-11-25T18:28:05.602Z,23.50
2022-11-25T18:30:34.038Z,27.00
2022-11-25T18:33:01.552Z,25.20
2022-11-25T18:35:35.665Z,25.27
2022-11-25T18:38:02.722Z,24.05
2022-11-25T18:40:29.740Z,24.33
2022-11-25T18:43:00.480Z,24.75
2022-11-25T18:45:38.494Z,25.00
2022-11-25T18:48:17.315Z,26.02
2022-11-25T18:50:45.037Z,23.52
2022-11-25T18:53:11.796Z,24.90
2022-11-25T18:55:38.317Z,23.85
2022-11-25T18:58:15.283Z,25.90
2022-11-25T19:00:41.955Z,23.10
2022-11-25T19:03:17.406Z,24.58
2022-11-25T19:05:43.937Z,24.15
2022-11-25T19:08:10.413Z,26.95
2022-11-25T19:10:38.832Z,23.48
2022-11-25T19:13:08.739Z,28.10
2022-11-25T19:15:37.381Z,27.88
2022-11-25T19:18:06.348Z,28.08
2022-11-25T19:20:33.122Z,27.70
2022-11-25T19:23:11.639Z,28.88
2022-11-25T19:25:37.946Z,29.67
2022-11-25T19:28:04.493Z,36.40
2022-11-25T19:30:32.254Z,40.80
2022-11-25T19:33:01.164Z,42.75
2022-11-25T19:35:33.249Z,44.90
2022-11-25T19:37:59.613Z,44.53
2022-11-25T19:40:26.290Z,49.05
2022-11-25T19:42:52.673Z,43.42
2022-11-25T19:45:20.982Z,42.47
2022-11-25T19:47:50.449Z,40.17
2022-11-25T19:50:23.505Z,45.03
2022-11-25T19:52:50.758Z,41.47
2022-11-25T19:55:18.963Z,46.22
2022-11-25T19:57:45.760Z,48.13
2022-11-25T20:00:14.422Z,44.40
2022-11-25T20:02:42.332Z,46.78
2022-11-25T20:05:09.543Z,45.38
2022-11-25T20:07:36.443Z,45.40
2022-11-25T20:10:19.503Z,47.60
2022-11-25T20:12:45.927Z,41.10
2022-11-25T20:15:13.020Z,45.28
2022-11-25T20:17:43.075Z,47.95
2022-11-25T20:20:22.462Z,47.65
2022-11-25T20:23:08.952Z,47.20
2022-11-25T20:25:43.410Z,48.67
2022-11-25T20:28:22.856Z,52.50
2022-11-25T20:30:50.639Z,57.45
2022-11-25T20:33:24.079Z,50.88
2022-11-25T20:35:58.451Z,50.58
2022-11-25T20:38:27.581Z,47.00
2022-11-25T20:40:57.784Z,52.08
2022-11-25T20:43:34.424Z,54.53
2022-11-25T20:46:02.473Z,55.75
2022-11-25T20:48:29.925Z,54.47
2022-11-25T20:50:59.940Z,59.72
2022-11-25T20:53:27.987Z,63.38
2022-11-25T20:55:54.329Z,62.30
2022-11-25T20:58:25.242Z,60.60
2022-11-25T21:01:01.126Z,59.38
2022-11-25T21:03:27.521Z,55.97
2022-11-25T21:05:55.334Z,60.00
2022-11-25T21:08:24.245Z,62.47
2022-11-25T21:10:53.816Z,64.05
2022-11-25T21:13:26.417Z,57.10
2022-11-25T21:15:53.937Z,57.38
2022-11-25T21:18:21.440Z,56.95
2022-11-25T21:20:53.615Z,54.05
2022-11-25T21:23:22.691Z,51.10
2022-11-25T21:25:50.304Z,45.05
2022-11-25T21:28:20.329Z,44.45
2022-11-25T21:30:49.497Z,44.45
2022-11-25T21:33:16.407Z,40.08
2022-11-25T21:35:46.711Z,43.42
2022-11-25T21:38:27.241Z,40.58
2022-11-25T21:40:56.095Z,37.03
2022-11-25T21:43:40.532Z,37.88
2022-11-25T21:46:12.506Z,31.67
2022-11-25T21:48:39.951Z,29.45
2022-11-25T21:51:06.362Z,34.85
2022-11-25T21:53:37.157Z,31.30
2022-11-25T21:56:14.161Z,29.90
2022-11-25T21:58:40.731Z,31.00
2022-11-25T22:01:10.669Z,26.00
2022-11-25T22:03:37.056Z,22.90
2022-11-25T22:06:03.705Z,23.73
2022-11-25T22:08:30.385Z,23.63
2022-11-25T22:10:56.844Z,22.30
2022-11-25T22:13:30.101Z,24.05
2022-11-25T22:15:58.232Z,25.47
2022-11-25T22:18:34.401Z,25.98
2022-11-25T22:21:01.835Z,28.02
2022-11-25T22:23:30.768Z,34.85
2022-11-25T22:25:57.196Z,35.13
2022-11-25T22:28:30.711Z,39.22
2022-11-25T22:31:04.823Z,43.95
2022-11-25T22:33:33.647Z,40.70
2022-11-25T22:36:00.658Z,45.35
2022-11-25T22:38:29.174Z,48.13
2022-11-25T22:40:59.283Z,53.58
2022-11-25T22:43:29.612Z,51.75
2022-11-25T22:45:56.788Z,55.05
2022-11-25T22:48:30.875Z,60.08
2022-11-25T22:51:00.083Z,56.63
2022-11-25T22:53:26.435Z,51.13
2022-11-25T22:55:56.735Z,55.95
2022-11-25T22:58:24.056Z,55.45
2022-11-25T23:00:51.482Z,56.40
2022-11-25T23:03:26.677Z,55.10
2022-11-25T23:05:54.253Z,51.15
2022-11-25T23:08:28.979Z,55.55
2022-11-25T23:10:56.147Z,53.70
2022-11-25T23:13:26.427Z,53.13
2022-11-25T23:15:59.963Z,56.75
2022-11-25T23:18:34.106Z,54.03
2022-11-25T23:21:05.560Z,49.33
2022-11-25T23:23:35.244Z,53.50
2022-11-25T23:26:02.014Z,53.47
2022-11-25T23:28:28.414Z,50.95
2022-11-25T23:31:00.702Z,50.67
2022-11-25T23:33:32.835Z,50.78
2022-11-25T23:36:02.536Z,51.40
2022-11-25T23:38:31.306Z,55.10
2022-11-25T23:40:57.840Z,49.33
2022-11-25T23:43:26.719Z,53.00
2022-11-25T23:45:56.014Z,52.00
2022-11-25T23:48:27.718Z,56.25
2022-11-25T23:50:58.116Z,48.50
2022-11-25T23:53:29.206Z,50.05
2022-11-25T23:55:55.839Z,50.58
2022-11-25T23:58:25.739Z,57.10
